sensor_id;sensor_type;location;lat;lon;timestamp;temperature;humidity
10802;DHT22;5453;50.852;7.102;2023-02-15T00:02:31;4.50;99.90
10802;DHT22;5453;50.852;7.102;2023-02-15T00:05:05;4.40;99.90
10802;DHT22;5453;50.852;7.102;2023-02-15T00:07:39;4.40;99.90
10802;DHT22;5453;50.852;7.102;2023-02-15T00:10:11;4.40;99.90
10802;DHT22;5453;50.852;7.102;2023-02-15T00:12:44;4.40;99.90
10802;DHT22;5453;50.852;7.102;2023-02-15T00:15:16;4.40;99.90
10802;DHT22;5453;50.852;7.102;2023-02-15T00:17:48;4.30;99.90
10802;DHT22;5453;50.852;7.102;2023-02-15T00:20:22;4.30;99.90
10802;DHT22;5453;50.852;7.102;2023-02-15T00:22:55;4.30;99.90
10802;DHT22;5453;50.852;7.102;2023-02-15T00:25:28;4.30;99.90
10802;DHT22;5453;50.852;7.102;2023-02-15T00:28:02;4.20;99.90
10802;DHT22;5453;50.852;7.102;2023-02-15T00:30:34;4.30;99.90
10802;DHT22;5453;50.852;7.102;2023-02-15T00:33:07;4.20;99.90
10802;DHT22;5453;50.852;7.102;2023-02-15T00:35:39;4.20;99.90
10802;DHT22;5453;50.852;7.102;2023-02-15T00:38:12;4.20;99.90
10802;DHT22;5453;50.852;7.102;2023-02-15T00:40:52;4.20;99.90
10802;DHT22;5453;50.852;7.102;2023-02-15T00:43:25;4.20;99.90
10802;DHT22;5453;50.852;7.102;2023-02-15T00:45:58;4.20;99.90
10802;DHT22;5453;50.852;7.102;2023-02-15T00:48:31;4.10;99.90
10802;DHT22;5453;50.852;7.102;2023-02-15T00:51:03;4.20;99.90
10802;DHT22;5453;50.852;7.102;2023-02-15T00:53:37;4.20;99.90
10802;DHT22;5453;50.852;7.102;2023-02-15T00:56:09;4.10;99.90
10802;DHT22;5453;50.852;7.102;2023-02-15T00:58:41;4.10;99.90
10802;DHT22;5453;50.852;7.102;2023-02-15T01:01:16;4.10;99.90
10802;DHT22;5453;50.852;7.102;2023-02-15T01:03:49;4.10;99.90
10802;DHT22;5453;50.852;7.102;2023-02-15T01:06:21;4.00;99.90
10802;DHT22;5453;50.852;7.102;2023-02-15T01:08:54;4.00;99.90
10802;DHT22;5453;50.852;7.102;2023-02-15T01:11:27;4.00;99.90
10802;DHT22;5453;50.852;7.102;2023-02-15T01:13:59;4.00;99.90
10802;DHT22;5453;50.852;7.102;2023-02-15T01:16:32;3.90;99.90
10802;DHT22;5453;50.852;7.102;2023-02-15T01:19:04;3.90;99.90
10802;DHT22;5453;50.852;7.102;2023-02-15T01:21:36;3.90;99.90
10802;DHT22;5453;50.852;7.102;2023-02-15T01:24:13;3.90;99.90
10802;DHT22;5453;50.852;7.102;2023-02-15T01:26:46;3.80;99.90
10802;DHT22;5453;50.852;7.102;2023-02-15T01:29:19;3.80;99.90
10802;DHT22;5453;50.852;7.102;2023-02-15T01:31:51;3.80;99.90
10802;DHT22;5453;50.852;7.102;2023-02-15T01:34:24;3.70;99.90
10802;DHT22;5453;50.852;7.102;2023-02-15T01:36:57;3.70;99.90
10802;DHT22;5453;50.852;7.102;2023-02-15T01:39:30;3.70;99.90
10802;DHT22;5453;50.852;7.102;2023-02-15T01:42:03;3.70;99.90
10802;DHT22;5453;50.852;7.102;2023-02-15T01:44:49;3.60;99.90
10802;DHT22;5453;50.852;7.102;2023-02-15T01:47:24;3.70;99.90
10802;DHT22;5453;50.852;7.102;2023-02-15T01:50:06;3.70;99.90
10802;DHT22;5453;50.852;7.102;2023-02-15T01:52:46;3.70;99.90
10802;DHT22;5453;50.852;7.102;2023-02-15T01:55:25;3.60;99.90
10802;DHT22;5453;50.852;7.102;2023-02-15T01:57:58;3.70;99.90
10802;DHT22;5453;50.852;7.102;2023-02-15T02:00:31;3.60;99.90
10802;DHT22;5453;50.852;7.102;2023-02-15T02:03:04;3.60;99.90
10802;DHT22;5453;50.852;7.102;2023-02-15T02:05:38;3.60;99.90
10802;DHT22;5453;50.852;7.102;2023-02-15T02:08:10;3.60;99.90
10802;DHT22;5453;50.852;7.102;2023-02-15T02:10:44;3.60;99.90
10802;DHT22;5453;50.852;7.102;2023-02-15T02:13:17;3.60;99.90
10802;DHT22;5453;50.852;7.102;2023-02-15T02:15:56;3.60;99.90
10802;DHT22;5453;50.852;7.102;2023-02-15T02:18:40;3.60;99.90
10802;DHT22;5453;50.852;7.102;2023-02-15T02:21:33;3.60;99.90
10802;DHT22;5453;50.852;7.102;2023-02-15T02:24:44;3.60;99.90
10802;DHT22;5453;50.852;7.102;2023-02-15T02:27:39;3.50;99.90
10802;DHT22;5453;50.852;7.102;2023-02-15T02:30:40;3.50;99.90
10802;DHT22;5453;50.852;7.102;2023-02-15T02:36:23;3.50;99.90
10802;DHT22;5453;50.852;7.102;2023-02-15T02:39:07;3.50;99.90
10802;DHT22;5453;50.852;7.102;2023-02-15T02:41:52;3.50;99.90
10802;DHT22;5453;50.852;7.102;2023-02-15T02:44:34;3.50;99.90
10802;DHT22;5453;50.852;7.102;2023-02-15T02:47:13;3.40;99.90
10802;DHT22;5453;50.852;7.102;2023-02-15T02:49:52;3.40;99.90
10802;DHT22;5453;50.852;7.102;2023-02-15T02:52:36;3.40;99.90
10802;DHT22;5453;50.852;7.102;2023-02-15T02:55:15;3.30;99.90
10802;DHT22;5453;50.852;7.102;2023-02-15T02:57:54;3.30;99.90
10802;DHT22;5453;50.852;7.102;2023-02-15T03:00:31;3.30;99.90
10802;DHT22;5453;50.852;7.102;2023-02-15T03:03:08;3.30;99.90
10802;DHT22;5453;50.852;7.102;2023-02-15T03:05:46;3.30;99.90
10802;DHT22;5453;50.852;7.102;2023-02-15T03:08:21;3.30;99.90
10802;DHT22;5453;50.852;7.102;2023-02-15T03:11:00;3.20;99.90
10802;DHT22;5453;50.852;7.102;2023-02-15T03:13:34;3.30;99.90
10802;DHT22;5453;50.852;7.102;2023-02-15T03:16:09;3.20;99.90
10802;DHT22;5453;50.852;7.102;2023-02-15T03:19:08;3.20;99.90
10802;DHT22;5453;50.852;7.102;2023-02-15T03:21:47;3.20;99.90
10802;DHT22;5453;50.852;7.102;2023-02-15T03:24:31;3.20;99.90
10802;DHT22;5453;50.852;7.102;2023-02-15T03:27:10;3.20;99.90
10802;DHT22;5453;50.852;7.102;2023-02-15T03:29:52;3.10;99.90
10802;DHT22;5453;50.852;7.102;2023-02-15T03:32:28;3.20;99.90
10802;DHT22;5453;50.852;7.102;2023-02-15T03:35:04;3.20;99.90
10802;DHT22;5453;50.852;7.102;2023-02-15T03:37:41;3.20;99.90
10802;DHT22;5453;50.852;7.102;2023-02-15T03:40:19;3.20;99.90
10802;DHT22;5453;50.852;7.102;2023-02-15T03:43:15;3.20;99.90
10802;DHT22;5453;50.852;7.102;2023-02-15T03:45:52;3.20;99.90
10802;DHT22;5453;50.852;7.102;2023-02-15T03:48:31;3.10;99.90
10802;DHT22;5453;50.852;7.102;2023-02-15T03:51:09;3.10;99.90
10802;DHT22;5453;50.852;7.102;2023-02-15T03:54:07;3.10;99.90
10802;DHT22;5453;50.852;7.102;2023-02-15T03:56:42;3.00;99.90
10802;DHT22;5453;50.852;7.102;2023-02-15T03:59:34;3.00;99.90
10802;DHT22;5453;50.852;7.102;2023-02-15T04:02:27;3.10;99.90
10802;DHT22;5453;50.852;7.102;2023-02-15T04:05:06;3.00;99.90
10802;DHT22;5453;50.852;7.102;2023-02-15T04:07:38;3.00;99.90
10802;DHT22;5453;50.852;7.102;2023-02-15T04:10:13;2.90;99.90
10802;DHT22;5453;50.852;7.102;2023-02-15T04:13:02;2.90;99.90
10802;DHT22;5453;50.852;7.102;2023-02-15T04:15:35;2.90;99.90
10802;DHT22;5453;50.852;7.102;2023-02-15T04:18:24;2.90;99.90
10802;DHT22;5453;50.852;7.102;2023-02-15T04:21:14;2.90;99.90
10802;DHT22;5453;50.852;7.102;2023-02-15T04:24:03;2.90;99.90
10802;DHT22;5453;50.852;7.102;2023-02-15T04:26:55;2.90;99.90
10802;DHT22;5453;50.852;7.102;2023-02-15T04:29:28;2.90;99.90
10802;DHT22;5453;50.852;7.102;2023-02-15T04:32:01;3.00;99.90
10802;DHT22;5453;50.852;7.102;2023-02-15T04:34:33;3.00;99.90
10802;DHT22;5453;50.852;7.102;2023-02-15T04:37:05;3.00;99.90
10802;DHT22;5453;50.852;7.102;2023-02-15T04:39:38;3.00;99.90
10802;DHT22;5453;50.852;7.102;2023-02-15T04:42:14;3.00;99.90
10802;DHT22;5453;50.852;7.102;2023-02-15T04:44:46;2.90;99.90
10802;DHT22;5453;50.852;7.102;2023-02-15T04:47:19;2.90;99.90
10802;DHT22;5453;50.852;7.102;2023-02-15T04:49:51;2.90;99.90
10802;DHT22;5453;50.852;7.102;2023-02-15T04:52:23;2.90;99.90
10802;DHT22;5453;50.852;7.102;2023-02-15T04:54:55;2.90;99.90
10802;DHT22;5453;50.852;7.102;2023-02-15T04:57:29;2.90;99.90
10802;DHT22;5453;50.852;7.102;2023-02-15T05:00:02;2.90;99.90
10802;DHT22;5453;50.852;7.102;2023-02-15T05:02:34;2.80;99.90
10802;DHT22;5453;50.852;7.102;2023-02-15T05:05:07;2.80;99.90
10802;DHT22;5453;50.852;7.102;2023-02-15T05:07:43;2.80;99.90
10802;DHT22;5453;50.852;7.102;2023-02-15T05:10:16;2.80;99.90
10802;DHT22;5453;50.852;7.102;2023-02-15T05:12:51;2.80;99.90
10802;DHT22;5453;50.852;7.102;2023-02-15T05:15:23;2.80;99.90
10802;DHT22;5453;50.852;7.102;2023-02-15T05:17:56;2.80;99.90
10802;DHT22;5453;50.852;7.102;2023-02-15T05:20:28;2.80;99.90
10802;DHT22;5453;50.852;7.102;2023-02-15T05:23:00;2.80;99.90
10802;DHT22;5453;50.852;7.102;2023-02-15T05:25:32;2.70;99.90
10802;DHT22;5453;50.852;7.102;2023-02-15T05:28:26;2.70;99.90
10802;DHT22;5453;50.852;7.102;2023-02-15T05:31:03;2.70;99.90
10802;DHT22;5453;50.852;7.102;2023-02-15T05:33:37;2.70;99.90
10802;DHT22;5453;50.852;7.102;2023-02-15T05:36:10;2.70;99.90
10802;DHT22;5453;50.852;7.102;2023-02-15T05:38:42;2.70;99.90
10802;DHT22;5453;50.852;7.102;2023-02-15T05:41:14;2.80;99.90
10802;DHT22;5453;50.852;7.102;2023-02-15T05:43:48;2.80;99.90
10802;DHT22;5453;50.852;7.102;2023-02-15T05:46:20;2.70;99.90
10802;DHT22;5453;50.852;7.102;2023-02-15T05:48:52;2.70;99.90
10802;DHT22;5453;50.852;7.102;2023-02-15T05:51:24;2.70;99.90
10802;DHT22;5453;50.852;7.102;2023-02-15T05:53:57;2.70;99.90
10802;DHT22;5453;50.852;7.102;2023-02-15T05:56:29;2.70;99.90
10802;DHT22;5453;50.852;7.102;2023-02-15T05:59:02;2.70;99.90
10802;DHT22;5453;50.852;7.102;2023-02-15T06:01:34;2.70;99.90
10802;DHT22;5453;50.852;7.102;2023-02-15T06:04:07;2.70;99.90
10802;DHT22;5453;50.852;7.102;2023-02-15T06:06:40;2.60;99.90
10802;DHT22;5453;50.852;7.102;2023-02-15T06:09:12;2.70;99.90
10802;DHT22;5453;50.852;7.102;2023-02-15T06:11:45;2.60;99.90
10802;DHT22;5453;50.852;7.102;2023-02-15T06:14:19;2.60;99.90
10802;DHT22;5453;50.852;7.102;2023-02-15T06:16:51;2.60;99.90
10802;DHT22;5453;50.852;7.102;2023-02-15T06:19:25;2.50;99.90
10802;DHT22;5453;50.852;7.102;2023-02-15T06:22:00;2.50;99.90
10802;DHT22;5453;50.852;7.102;2023-02-15T06:24:37;2.50;99.90
10802;DHT22;5453;50.852;7.102;2023-02-15T06:27:10;2.50;99.90
10802;DHT22;5453;50.852;7.102;2023-02-15T06:29:44;2.50;99.90
10802;DHT22;5453;50.852;7.102;2023-02-15T06:32:18;2.40;99.90
10802;DHT22;5453;50.852;7.102;2023-02-15T06:34:50;2.40;99.90
10802;DHT22;5453;50.852;7.102;2023-02-15T06:37:23;2.40;99.90
10802;DHT22;5453;50.852;7.102;2023-02-15T06:39:56;2.40;99.90
10802;DHT22;5453;50.852;7.102;2023-02-15T06:42:28;2.50;99.90
10802;DHT22;5453;50.852;7.102;2023-02-15T06:45:06;2.50;99.90
10802;DHT22;5453;50.852;7.102;2023-02-15T06:47:41;2.50;99.90
10802;DHT22;5453;50.852;7.102;2023-02-15T06:50:14;2.50;99.90
10802;DHT22;5453;50.852;7.102;2023-02-15T06:52:46;2.40;99.90
10802;DHT22;5453;50.852;7.102;2023-02-15T06:55:19;2.40;99.90
10802;DHT22;5453;50.852;7.102;2023-02-15T06:57:51;2.40;99.90
10802;DHT22;5453;50.852;7.102;2023-02-15T07:00:25;2.40;99.90
10802;DHT22;5453;50.852;7.102;2023-02-15T07:03:01;2.40;99.90
10802;DHT22;5453;50.852;7.102;2023-02-15T07:05:35;2.40;99.90
10802;DHT22;5453;50.852;7.102;2023-02-15T07:08:08;2.40;99.90
10802;DHT22;5453;50.852;7.102;2023-02-15T07:10:43;2.50;99.90
10802;DHT22;5453;50.852;7.102;2023-02-15T07:13:16;2.50;99.90
10802;DHT22;5453;50.852;7.102;2023-02-15T07:15:48;2.60;99.90
10802;DHT22;5453;50.852;7.102;2023-02-15T07:18:21;2.60;99.90
10802;DHT22;5453;50.852;7.102;2023-02-15T07:20:54;2.60;99.90
10802;DHT22;5453;50.852;7.102;2023-02-15T07:23:26;2.70;99.90
10802;DHT22;5453;50.852;7.102;2023-02-15T07:25:59;2.70;99.90
10802;DHT22;5453;50.852;7.102;2023-02-15T07:28:32;2.70;99.90
10802;DHT22;5453;50.852;7.102;2023-02-15T07:31:06;2.70;99.90
10802;DHT22;5453;50.852;7.102;2023-02-15T07:33:38;2.80;99.90
10802;DHT22;5453;50.852;7.102;2023-02-15T07:36:11;2.80;99.90
10802;DHT22;5453;50.852;7.102;2023-02-15T07:38:45;2.90;99.90
10802;DHT22;5453;50.852;7.102;2023-02-15T07:41:18;2.90;99.90
10802;DHT22;5453;50.852;7.102;2023-02-15T07:43:50;2.90;99.90
10802;DHT22;5453;50.852;7.102;2023-02-15T07:46:25;2.90;99.90
10802;DHT22;5453;50.852;7.102;2023-02-15T07:48:58;3.00;99.90
10802;DHT22;5453;50.852;7.102;2023-02-15T07:51:30;3.10;99.90
10802;DHT22;5453;50.852;7.102;2023-02-15T07:54:03;3.10;99.90
10802;DHT22;5453;50.852;7.102;2023-02-15T07:56:37;3.10;99.90
10802;DHT22;5453;50.852;7.102;2023-02-15T07:59:11;3.20;99.90
10802;DHT22;5453;50.852;7.102;2023-02-15T08:01:45;3.20;99.90
10802;DHT22;5453;50.852;7.102;2023-02-15T08:04:18;3.20;99.90
10802;DHT22;5453;50.852;7.102;2023-02-15T08:06:52;3.20;99.90
10802;DHT22;5453;50.852;7.102;2023-02-15T08:09:26;3.30;99.90
10802;DHT22;5453;50.852;7.102;2023-02-15T08:11:59;4.20;99.90
10802;DHT22;5453;50.852;7.102;2023-02-15T08:14:33;4.30;99.90
10802;DHT22;5453;50.852;7.102;2023-02-15T08:17:08;4.20;99.90
10802;DHT22;5453;50.852;7.102;2023-02-15T08:19:40;4.20;99.90
10802;DHT22;5453;50.852;7.102;2023-02-15T08:22:14;4.10;99.90
10802;DHT22;5453;50.852;7.102;2023-02-15T08:24:46;4.00;99.90
10802;DHT22;5453;50.852;7.102;2023-02-15T08:27:20;4.00;99.90
10802;DHT22;5453;50.852;7.102;2023-02-15T08:29:57;4.10;99.90
10802;DHT22;5453;50.852;7.102;2023-02-15T08:32:31;4.20;99.90
10802;DHT22;5453;50.852;7.102;2023-02-15T08:35:03;4.70;99.90
10802;DHT22;5453;50.852;7.102;2023-02-15T08:37:37;5.40;99.90
10802;DHT22;5453;50.852;7.102;2023-02-15T08:40:10;6.00;99.90
10802;DHT22;5453;50.852;7.102;2023-02-15T08:42:45;6.70;99.90
10802;DHT22;5453;50.852;7.102;2023-02-15T08:45:19;7.20;99.90
10802;DHT22;5453;50.852;7.102;2023-02-15T08:47:53;7.60;99.90
10802;DHT22;5453;50.852;7.102;2023-02-15T08:50:26;8.00;99.90
10802;DHT22;5453;50.852;7.102;2023-02-15T08:52:59;8.00;99.90
10802;DHT22;5453;50.852;7.102;2023-02-15T08:55:31;7.90;99.90
10802;DHT22;5453;50.852;7.102;2023-02-15T08:58:04;8.10;99.90
10802;DHT22;5453;50.852;7.102;2023-02-15T09:00:36;8.40;99.90
10802;DHT22;5453;50.852;7.102;2023-02-15T09:03:10;8.50;99.60
10802;DHT22;5453;50.852;7.102;2023-02-15T09:05:43;8.50;99.10
10802;DHT22;5453;50.852;7.102;2023-02-15T09:08:15;8.30;99.00
10802;DHT22;5453;50.852;7.102;2023-02-15T09:10:50;8.10;99.70
10802;DHT22;5453;50.852;7.102;2023-02-15T09:13:24;8.00;99.90
10802;DHT22;5453;50.852;7.102;2023-02-15T09:15:59;8.10;99.90
10802;DHT22;5453;50.852;7.102;2023-02-15T09:18:36;8.20;99.90
10802;DHT22;5453;50.852;7.102;2023-02-15T09:21:11;8.30;99.90
10802;DHT22;5453;50.852;7.102;2023-02-15T09:23:47;8.40;99.90
10802;DHT22;5453;50.852;7.102;2023-02-15T09:26:20;8.40;99.40
10802;DHT22;5453;50.852;7.102;2023-02-15T09:28:55;8.40;99.60
10802;DHT22;5453;50.852;7.102;2023-02-15T09:31:32;8.40;99.30
10802;DHT22;5453;50.852;7.102;2023-02-15T09:34:11;8.30;99.50
10802;DHT22;5453;50.852;7.102;2023-02-15T09:36:44;8.30;99.80
10802;DHT22;5453;50.852;7.102;2023-02-15T09:39:18;8.40;99.70
10802;DHT22;5453;50.852;7.102;2023-02-15T09:42:14;8.50;99.90
10802;DHT22;5453;50.852;7.102;2023-02-15T09:45:14;8.60;99.30
10802;DHT22;5453;50.852;7.102;2023-02-15T09:51:12;8.70;99.50
10802;DHT22;5453;50.852;7.102;2023-02-15T09:54:03;8.70;99.10
10802;DHT22;5453;50.852;7.102;2023-02-15T09:56:51;8.80;99.50
10802;DHT22;5453;50.852;7.102;2023-02-15T09:59:33;9.00;99.40
10802;DHT22;5453;50.852;7.102;2023-02-15T10:02:20;9.00;99.00
10802;DHT22;5453;50.852;7.102;2023-02-15T10:05:10;9.20;99.00
10802;DHT22;5453;50.852;7.102;2023-02-15T10:08:06;9.30;98.90
10802;DHT22;5453;50.852;7.102;2023-02-15T10:11:00;9.20;97.80
10802;DHT22;5453;50.852;7.102;2023-02-15T10:14:01;9.30;98.40
10802;DHT22;5453;50.852;7.102;2023-02-15T10:16:45;9.30;98.60
10802;DHT22;5453;50.852;7.102;2023-02-15T10:19:28;9.40;98.20
10802;DHT22;5453;50.852;7.102;2023-02-15T10:22:16;9.50;98.50
10802;DHT22;5453;50.852;7.102;2023-02-15T10:24:58;9.60;98.50
10802;DHT22;5453;50.852;7.102;2023-02-15T10:27:45;9.50;97.40
10802;DHT22;5453;50.852;7.102;2023-02-15T10:30:23;9.40;97.90
10802;DHT22;5453;50.852;7.102;2023-02-15T10:35:46;9.30;98.20
10802;DHT22;5453;50.852;7.102;2023-02-15T10:38:29;9.20;98.40
10802;DHT22;5453;50.852;7.102;2023-02-15T10:41:17;9.30;98.70
10802;DHT22;5453;50.852;7.102;2023-02-15T10:44:13;9.40;98.20
10802;DHT22;5453;50.852;7.102;2023-02-15T10:47:08;9.40;98.40
10802;DHT22;5453;50.852;7.102;2023-02-15T10:50:10;9.40;98.60
10802;DHT22;5453;50.852;7.102;2023-02-15T10:52:59;9.40;98.90
10802;DHT22;5453;50.852;7.102;2023-02-15T10:55:48;9.50;98.60
10802;DHT22;5453;50.852;7.102;2023-02-15T10:58:35;9.50;98.60
10802;DHT22;5453;50.852;7.102;2023-02-15T11:01:19;9.60;98.50
10802;DHT22;5453;50.852;7.102;2023-02-15T11:04:24;9.70;98.40
10802;DHT22;5453;50.852;7.102;2023-02-15T11:07:12;9.80;99.90
10802;DHT22;5453;50.852;7.102;2023-02-15T11:09:50;10.40;99.90
10802;DHT22;5453;50.852;7.102;2023-02-15T11:12:27;10.70;98.40
10802;DHT22;5453;50.852;7.102;2023-02-15T11:15:10;10.70;96.70
10802;DHT22;5453;50.852;7.102;2023-02-15T11:17:46;10.70;97.10
10802;DHT22;5453;50.852;7.102;2023-02-15T11:20:27;10.60;97.40
10802;DHT22;5453;50.852;7.102;2023-02-15T11:23:01;10.60;96.80
10802;DHT22;5453;50.852;7.102;2023-02-15T11:25:35;10.60;96.60
10802;DHT22;5453;50.852;7.102;2023-02-15T11:28:17;10.70;97.00
10802;DHT22;5453;50.852;7.102;2023-02-15T11:30:55;10.80;96.80
10802;DHT22;5453;50.852;7.102;2023-02-15T11:33:35;10.90;96.40
10802;DHT22;5453;50.852;7.102;2023-02-15T11:36:13;11.10;96.50
10802;DHT22;5453;50.852;7.102;2023-02-15T11:38:52;11.30;96.20
10802;DHT22;5453;50.852;7.102;2023-02-15T11:41:32;11.30;95.40
10802;DHT22;5453;50.852;7.102;2023-02-15T11:44:13;11.30;95.50
10802;DHT22;5453;50.852;7.102;2023-02-15T11:46:51;11.20;95.00
10802;DHT22;5453;50.852;7.102;2023-02-15T11:49:28;11.20;95.10
10802;DHT22;5453;50.852;7.102;2023-02-15T11:52:06;11.20;95.60
10802;DHT22;5453;50.852;7.102;2023-02-15T11:54:41;11.20;95.20
10802;DHT22;5453;50.852;7.102;2023-02-15T11:57:17;11.30;98.20
10802;DHT22;5453;50.852;7.102;2023-02-15T12:00:00;11.70;99.20
10802;DHT22;5453;50.852;7.102;2023-02-15T12:02:42;12.10;97.20
10802;DHT22;5453;50.852;7.102;2023-02-15T12:05:20;12.40;98.20
10802;DHT22;5453;50.852;7.102;2023-02-15T12:08:00;12.80;96.60
10802;DHT22;5453;50.852;7.102;2023-02-15T12:10:40;13.00;93.50
10802;DHT22;5453;50.852;7.102;2023-02-15T12:13:19;13.00;92.10
10802;DHT22;5453;50.852;7.102;2023-02-15T12:15:55;12.70;91.60
10802;DHT22;5453;50.852;7.102;2023-02-15T12:18:47;12.40;92.00
10802;DHT22;5453;50.852;7.102;2023-02-15T12:21:40;12.20;92.50
10802;DHT22;5453;50.852;7.102;2023-02-15T12:24:18;12.20;93.40
10802;DHT22;5453;50.852;7.102;2023-02-15T12:27:01;12.10;93.20
10802;DHT22;5453;50.852;7.102;2023-02-15T12:29:39;12.10;93.40
10802;DHT22;5453;50.852;7.102;2023-02-15T12:32:17;12.00;93.00
10802;DHT22;5453;50.852;7.102;2023-02-15T12:34:56;12.00;93.30
10802;DHT22;5453;50.852;7.102;2023-02-15T12:37:32;11.90;93.40
10802;DHT22;5453;50.852;7.102;2023-02-15T12:40:19;12.00;93.40
10802;DHT22;5453;50.852;7.102;2023-02-15T12:42:53;12.00;93.50
10802;DHT22;5453;50.852;7.102;2023-02-15T12:45:27;12.00;93.50
10802;DHT22;5453;50.852;7.102;2023-02-15T12:48:14;12.10;93.80
10802;DHT22;5453;50.852;7.102;2023-02-15T12:50:50;12.10;93.30
10802;DHT22;5453;50.852;7.102;2023-02-15T12:53:30;12.10;93.40
10802;DHT22;5453;50.852;7.102;2023-02-15T12:56:06;12.30;97.00
10802;DHT22;5453;50.852;7.102;2023-02-15T12:58:42;12.40;93.50
10802;DHT22;5453;50.852;7.102;2023-02-15T13:01:18;12.30;93.20
10802;DHT22;5453;50.852;7.102;2023-02-15T13:03:56;12.40;93.00
10802;DHT22;5453;50.852;7.102;2023-02-15T13:06:34;12.40;92.90
10802;DHT22;5453;50.852;7.102;2023-02-15T13:09:14;12.40;92.60
10802;DHT22;5453;50.852;7.102;2023-02-15T13:11:47;12.40;92.70
10802;DHT22;5453;50.852;7.102;2023-02-15T13:14:22;12.30;92.60
10802;DHT22;5453;50.852;7.102;2023-02-15T13:17:02;12.30;93.00
10802;DHT22;5453;50.852;7.102;2023-02-15T13:19:39;12.30;92.70
10802;DHT22;5453;50.852;7.102;2023-02-15T13:22:16;12.40;92.50
10802;DHT22;5453;50.852;7.102;2023-02-15T13:24:53;12.50;92.90
10802;DHT22;5453;50.852;7.102;2023-02-15T13:27:37;12.60;92.50
10802;DHT22;5453;50.852;7.102;2023-02-15T13:30:26;12.60;92.60
10802;DHT22;5453;50.852;7.102;2023-02-15T13:33:04;12.70;92.50
10802;DHT22;5453;50.852;7.102;2023-02-15T13:35:42;12.60;91.80
10802;DHT22;5453;50.852;7.102;2023-02-15T13:38:27;12.60;91.40
10802;DHT22;5453;50.852;7.102;2023-02-15T13:41:11;12.60;91.60
10802;DHT22;5453;50.852;7.102;2023-02-15T13:43:52;12.60;92.00
10802;DHT22;5453;50.852;7.102;2023-02-15T13:46:45;12.60;91.80
10802;DHT22;5453;50.852;7.102;2023-02-15T13:49:32;12.70;92.00
10802;DHT22;5453;50.852;7.102;2023-02-15T13:52:18;12.60;91.80
10802;DHT22;5453;50.852;7.102;2023-02-15T13:55:19;12.60;92.00
10802;DHT22;5453;50.852;7.102;2023-02-15T13:58:29;12.60;92.20
10802;DHT22;5453;50.852;7.102;2023-02-15T14:01:24;12.70;92.20
10802;DHT22;5453;50.852;7.102;2023-02-15T14:04:37;12.70;91.90
10802;DHT22;5453;50.852;7.102;2023-02-15T14:07:45;12.70;92.00
10802;DHT22;5453;50.852;7.102;2023-02-15T14:10:34;12.70;91.80
10802;DHT22;5453;50.852;7.102;2023-02-15T14:13:42;12.70;92.00
10802;DHT22;5453;50.852;7.102;2023-02-15T14:16:26;12.70;92.00
10802;DHT22;5453;50.852;7.102;2023-02-15T14:19:11;12.70;92.00
10802;DHT22;5453;50.852;7.102;2023-02-15T14:21:55;12.70;91.70
10802;DHT22;5453;50.852;7.102;2023-02-15T14:24:34;12.60;92.00
10802;DHT22;5453;50.852;7.102;2023-02-15T14:27:18;12.60;92.00
10802;DHT22;5453;50.852;7.102;2023-02-15T14:29:56;12.60;92.10
10802;DHT22;5453;50.852;7.102;2023-02-15T14:32:34;12.70;96.20
10802;DHT22;5453;50.852;7.102;2023-02-15T14:35:14;12.90;93.40
10802;DHT22;5453;50.852;7.102;2023-02-15T14:37:51;12.80;92.00
10802;DHT22;5453;50.852;7.102;2023-02-15T14:40:40;12.70;92.20
10802;DHT22;5453;50.852;7.102;2023-02-15T14:43:44;12.60;92.20
10802;DHT22;5453;50.852;7.102;2023-02-15T14:46:25;12.40;92.80
10802;DHT22;5453;50.852;7.102;2023-02-15T14:49:06;12.30;92.80
10802;DHT22;5453;50.852;7.102;2023-02-15T14:51:59;12.20;93.00
10802;DHT22;5453;50.852;7.102;2023-02-15T14:54:55;12.10;93.30
10802;DHT22;5453;50.852;7.102;2023-02-15T14:57:31;12.00;93.60
10802;DHT22;5453;50.852;7.102;2023-02-15T15:00:30;11.90;93.80
10802;DHT22;5453;50.852;7.102;2023-02-15T15:03:12;11.80;94.10
10802;DHT22;5453;50.852;7.102;2023-02-15T15:06:02;11.80;94.50
10802;DHT22;5453;50.852;7.102;2023-02-15T15:08:38;11.80;94.50
10802;DHT22;5453;50.852;7.102;2023-02-15T15:11:40;11.80;94.60
10802;DHT22;5453;50.852;7.102;2023-02-15T15:14:41;11.80;94.70
10802;DHT22;5453;50.852;7.102;2023-02-15T15:17:53;11.70;94.70
10802;DHT22;5453;50.852;7.102;2023-02-15T15:20:46;11.70;94.90
10802;DHT22;5453;50.852;7.102;2023-02-15T15:23:43;11.60;95.00
10802;DHT22;5453;50.852;7.102;2023-02-15T15:26:25;11.60;95.30
10802;DHT22;5453;50.852;7.102;2023-02-15T15:29:00;11.60;95.50
10802;DHT22;5453;50.852;7.102;2023-02-15T15:31:41;11.50;95.60
10802;DHT22;5453;50.852;7.102;2023-02-15T15:34:54;11.50;95.60
10802;DHT22;5453;50.852;7.102;2023-02-15T15:38:02;11.50;95.90
10802;DHT22;5453;50.852;7.102;2023-02-15T15:41:16;11.40;96.20
10802;DHT22;5453;50.852;7.102;2023-02-15T15:47:29;11.30;96.40
10802;DHT22;5453;50.852;7.102;2023-02-15T15:50:15;11.30;96.60
10802;DHT22;5453;50.852;7.102;2023-02-15T15:52:51;11.20;96.90
10802;DHT22;5453;50.852;7.102;2023-02-15T15:55:26;11.10;96.90
10802;DHT22;5453;50.852;7.102;2023-02-15T15:58:03;11.10;97.10
10802;DHT22;5453;50.852;7.102;2023-02-15T16:00:39;11.00;97.20
10802;DHT22;5453;50.852;7.102;2023-02-15T16:03:20;11.00;97.50
10802;DHT22;5453;50.852;7.102;2023-02-15T16:05:55;10.90;97.70
10802;DHT22;5453;50.852;7.102;2023-02-15T16:08:32;10.90;98.00
10802;DHT22;5453;50.852;7.102;2023-02-15T16:11:10;10.80;98.00
10802;DHT22;5453;50.852;7.102;2023-02-15T16:13:45;10.80;98.20
10802;DHT22;5453;50.852;7.102;2023-02-15T16:16:21;10.80;98.40
10802;DHT22;5453;50.852;7.102;2023-02-15T16:18:55;10.70;98.40
10802;DHT22;5453;50.852;7.102;2023-02-15T16:21:33;10.70;98.60
10802;DHT22;5453;50.852;7.102;2023-02-15T16:24:21;10.60;98.70
10802;DHT22;5453;50.852;7.102;2023-02-15T16:27:31;10.60;98.80
10802;DHT22;5453;50.852;7.102;2023-02-15T16:30:20;10.50;99.00
10802;DHT22;5453;50.852;7.102;2023-02-15T16:33:04;10.50;99.20
10802;DHT22;5453;50.852;7.102;2023-02-15T16:35:39;10.40;99.20
10802;DHT22;5453;50.852;7.102;2023-02-15T16:38:13;10.40;99.40
10802;DHT22;5453;50.852;7.102;2023-02-15T16:40:48;10.40;99.50
10802;DHT22;5453;50.852;7.102;2023-02-15T16:43:26;10.30;99.60
10802;DHT22;5453;50.852;7.102;2023-02-15T16:46:04;10.20;99.70
10802;DHT22;5453;50.852;7.102;2023-02-15T16:48:40;10.20;99.90
10802;DHT22;5453;50.852;7.102;2023-02-15T16:51:19;10.10;99.90
10802;DHT22;5453;50.852;7.102;2023-02-15T16:53:57;10.10;99.90
10802;DHT22;5453;50.852;7.102;2023-02-15T16:56:34;10.00;99.90
10802;DHT22;5453;50.852;7.102;2023-02-15T16:59:19;10.00;99.90
10802;DHT22;5453;50.852;7.102;2023-02-15T17:01:58;9.90;99.90
10802;DHT22;5453;50.852;7.102;2023-02-15T17:04:31;9.90;99.90
10802;DHT22;5453;50.852;7.102;2023-02-15T17:07:12;9.90;99.90
10802;DHT22;5453;50.852;7.102;2023-02-15T17:09:53;9.80;99.90
10802;DHT22;5453;50.852;7.102;2023-02-15T17:12:46;9.80;99.90
10802;DHT22;5453;50.852;7.102;2023-02-15T17:15:24;9.70;99.90
10802;DHT22;5453;50.852;7.102;2023-02-15T17:18:00;9.70;99.90
10802;DHT22;5453;50.852;7.102;2023-02-15T17:20:36;9.70;99.90
10802;DHT22;5453;50.852;7.102;2023-02-15T17:23:17;9.70;99.90
10802;DHT22;5453;50.852;7.102;2023-02-15T17:25:55;9.60;99.90
10802;DHT22;5453;50.852;7.102;2023-02-15T17:28:29;9.60;99.90